sensor_id;sensor_type;location;lat;lon;timestamp;temperature;humidity
47540;DHT22;33280;52.152;21.052;2023-04-25T00:00:17;12.50;99.90
47540;DHT22;33280;52.152;21.052;2023-04-25T00:02:43;12.50;99.90
47540;DHT22;33280;52.152;21.052;2023-04-25T00:05:11;12.40;99.90
47540;DHT22;33280;52.152;21.052;2023-04-25T00:07:38;12.40;99.90
47540;DHT22;33280;52.152;21.052;2023-04-25T00:10:07;12.50;99.90
47540;DHT22;33280;52.152;21.052;2023-04-25T00:12:34;12.50;99.90
47540;DHT22;33280;52.152;21.052;2023-04-25T00:15:02;12.40;99.90
47540;DHT22;33280;52.152;21.052;2023-04-25T00:17:29;12.50;99.90
47540;DHT22;33280;52.152;21.052;2023-04-25T00:19:56;12.50;99.90
47540;DHT22;33280;52.152;21.052;2023-04-25T00:22:24;12.60;99.90
47540;DHT22;33280;52.152;21.052;2023-04-25T00:24:51;12.50;99.90
47540;DHT22;33280;52.152;21.052;2023-04-25T00:27:19;12.60;99.90
47540;DHT22;33280;52.152;21.052;2023-04-25T00:29:46;12.60;99.90
47540;DHT22;33280;52.152;21.052;2023-04-25T00:32:13;12.60;99.90
47540;DHT22;33280;52.152;21.052;2023-04-25T00:34:40;12.60;99.90
47540;DHT22;33280;52.152;21.052;2023-04-25T00:37:07;12.60;99.90
47540;DHT22;33280;52.152;21.052;2023-04-25T00:39:33;12.50;99.90
47540;DHT22;33280;52.152;21.052;2023-04-25T00:42:00;12.50;99.90
47540;DHT22;33280;52.152;21.052;2023-04-25T00:44:30;12.50;99.90
47540;DHT22;33280;52.152;21.052;2023-04-25T00:46:57;12.50;99.90
47540;DHT22;33280;52.152;21.052;2023-04-25T00:49:24;12.50;99.90
47540;DHT22;33280;52.152;21.052;2023-04-25T00:51:51;12.50;99.90
47540;DHT22;33280;52.152;21.052;2023-04-25T00:54:18;12.50;99.90
47540;DHT22;33280;52.152;21.052;2023-04-25T00:56:45;12.50;99.90
47540;DHT22;33280;52.152;21.052;2023-04-25T00:59:12;12.50;99.90
47540;DHT22;33280;52.152;21.052;2023-04-25T01:01:39;12.50;99.90
47540;DHT22;33280;52.152;21.052;2023-04-25T01:04:08;12.40;99.90
47540;DHT22;33280;52.152;21.052;2023-04-25T01:06:35;12.30;99.90
47540;DHT22;33280;52.152;21.052;2023-04-25T01:09:02;12.30;99.90
47540;DHT22;33280;52.152;21.052;2023-04-25T01:11:30;12.30;99.90
47540;DHT22;33280;52.152;21.052;2023-04-25T01:13:57;12.20;99.90
47540;DHT22;33280;52.152;21.052;2023-04-25T01:16:24;12.20;99.90
47540;DHT22;33280;52.152;21.052;2023-04-25T01:18:51;12.20;99.90
47540;DHT22;33280;52.152;21.052;2023-04-25T01:21:18;12.20;99.90
47540;DHT22;33280;52.152;21.052;2023-04-25T01:23:45;12.20;99.90
47540;DHT22;33280;52.152;21.052;2023-04-25T01:26:12;12.10;99.90
47540;DHT22;33280;52.152;21.052;2023-04-25T01:28:40;12.10;99.90
47540;DHT22;33280;52.152;21.052;2023-04-25T01:31:08;12.10;99.90
47540;DHT22;33280;52.152;21.052;2023-04-25T01:33:36;11.90;99.90
47540;DHT22;33280;52.152;21.052;2023-04-25T01:36:03;11.90;99.90
47540;DHT22;33280;52.152;21.052;2023-04-25T01:38:30;11.90;99.90
47540;DHT22;33280;52.152;21.052;2023-04-25T01:40:57;11.90;99.90
47540;DHT22;33280;52.152;21.052;2023-04-25T01:43:24;11.80;99.90
47540;DHT22;33280;52.152;21.052;2023-04-25T01:45:53;11.90;99.90
47540;DHT22;33280;52.152;21.052;2023-04-25T01:48:20;11.90;99.90
47540;DHT22;33280;52.152;21.052;2023-04-25T01:50:47;11.90;99.90
47540;DHT22;33280;52.152;21.052;2023-04-25T01:53:14;11.90;99.90
47540;DHT22;33280;52.152;21.052;2023-04-25T01:55:41;11.90;99.90
47540;DHT22;33280;52.152;21.052;2023-04-25T01:58:08;12.00;99.90
47540;DHT22;33280;52.152;21.052;2023-04-25T02:00:39;12.00;99.90
47540;DHT22;33280;52.152;21.052;2023-04-25T02:03:08;12.10;99.90
47540;DHT22;33280;52.152;21.052;2023-04-25T02:05:36;12.20;99.90
47540;DHT22;33280;52.152;21.052;2023-04-25T02:08:07;12.10;99.90
47540;DHT22;33280;52.152;21.052;2023-04-25T02:10:35;12.00;99.90
47540;DHT22;33280;52.152;21.052;2023-04-25T02:13:02;12.00;99.90
47540;DHT22;33280;52.152;21.052;2023-04-25T02:15:29;12.00;99.90
47540;DHT22;33280;52.152;21.052;2023-04-25T02:17:56;11.90;99.90
47540;DHT22;33280;52.152;21.052;2023-04-25T02:20:24;11.90;99.90
47540;DHT22;33280;52.152;21.052;2023-04-25T02:22:51;11.90;99.90
47540;DHT22;33280;52.152;21.052;2023-04-25T02:25:19;11.90;99.90
47540;DHT22;33280;52.152;21.052;2023-04-25T02:27:47;11.90;99.90
47540;DHT22;33280;52.152;21.052;2023-04-25T02:30:15;11.70;99.90
47540;DHT22;33280;52.152;21.052;2023-04-25T02:32:42;11.70;99.90
47540;DHT22;33280;52.152;21.052;2023-04-25T02:35:09;11.60;99.90
47540;DHT22;33280;52.152;21.052;2023-04-25T02:37:38;11.60;99.90
47540;DHT22;33280;52.152;21.052;2023-04-25T02:40:05;11.60;99.90
47540;DHT22;33280;52.152;21.052;2023-04-25T02:42:33;11.60;99.90
47540;DHT22;33280;52.152;21.052;2023-04-25T02:45:00;11.50;99.90
47540;DHT22;33280;52.152;21.052;2023-04-25T02:47:27;11.50;99.90
47540;DHT22;33280;52.152;21.052;2023-04-25T02:49:54;11.40;99.90
47540;DHT22;33280;52.152;21.052;2023-04-25T02:52:21;11.40;99.90
47540;DHT22;33280;52.152;21.052;2023-04-25T02:54:48;11.40;99.90
47540;DHT22;33280;52.152;21.052;2023-04-25T02:57:15;11.50;99.90
47540;DHT22;33280;52.152;21.052;2023-04-25T02:59:41;11.40;99.90
47540;DHT22;33280;52.152;21.052;2023-04-25T03:02:09;11.30;99.90
47540;DHT22;33280;52.152;21.052;2023-04-25T03:04:36;11.40;99.90
47540;DHT22;33280;52.152;21.052;2023-04-25T03:07:04;11.40;99.90
47540;DHT22;33280;52.152;21.052;2023-04-25T03:09:31;11.40;99.90
47540;DHT22;33280;52.152;21.052;2023-04-25T03:11:57;11.40;99.90
47540;DHT22;33280;52.152;21.052;2023-04-25T03:14:24;11.30;99.90
47540;DHT22;33280;52.152;21.052;2023-04-25T03:16:51;11.20;99.90
47540;DHT22;33280;52.152;21.052;2023-04-25T03:19:18;11.20;99.90
47540;DHT22;33280;52.152;21.052;2023-04-25T03:21:45;11.30;99.90
47540;DHT22;33280;52.152;21.052;2023-04-25T03:24:12;11.40;99.90
47540;DHT22;33280;52.152;21.052;2023-04-25T03:26:39;11.40;99.90
47540;DHT22;33280;52.152;21.052;2023-04-25T03:29:06;11.40;99.90
47540;DHT22;33280;52.152;21.052;2023-04-25T03:31:32;11.50;99.90
47540;DHT22;33280;52.152;21.052;2023-04-25T03:33:59;11.60;99.90
47540;DHT22;33280;52.152;21.052;2023-04-25T03:36:26;11.60;99.90
47540;DHT22;33280;52.152;21.052;2023-04-25T03:38:53;11.50;99.90
47540;DHT22;33280;52.152;21.052;2023-04-25T03:41:20;11.60;99.90
47540;DHT22;33280;52.152;21.052;2023-04-25T03:43:48;11.60;99.90
47540;DHT22;33280;52.152;21.052;2023-04-25T03:46:15;11.60;99.90
47540;DHT22;33280;52.152;21.052;2023-04-25T03:48:42;11.50;99.90
47540;DHT22;33280;52.152;21.052;2023-04-25T03:51:09;11.60;99.90
47540;DHT22;33280;52.152;21.052;2023-04-25T03:53:37;11.50;99.90
47540;DHT22;33280;52.152;21.052;2023-04-25T03:56:04;11.50;99.90
47540;DHT22;33280;52.152;21.052;2023-04-25T03:58:31;11.50;99.90
47540;DHT22;33280;52.152;21.052;2023-04-25T04:00:58;11.40;99.90
47540;DHT22;33280;52.152;21.052;2023-04-25T04:03:24;11.50;99.90
47540;DHT22;33280;52.152;21.052;2023-04-25T04:05:52;11.50;99.90
47540;DHT22;33280;52.152;21.052;2023-04-25T04:08:20;11.50;99.90
47540;DHT22;33280;52.152;21.052;2023-04-25T04:10:47;11.50;99.90
47540;DHT22;33280;52.152;21.052;2023-04-25T04:13:14;11.50;99.90
47540;DHT22;33280;52.152;21.052;2023-04-25T04:15:41;11.50;99.90
47540;DHT22;33280;52.152;21.052;2023-04-25T04:18:08;11.50;99.90
47540;DHT22;33280;52.152;21.052;2023-04-25T04:20:34;11.50;99.90
47540;DHT22;33280;52.152;21.052;2023-04-25T04:23:01;11.40;99.90
47540;DHT22;33280;52.152;21.052;2023-04-25T04:25:28;11.40;99.90
47540;DHT22;33280;52.152;21.052;2023-04-25T04:27:56;11.50;99.90
47540;DHT22;33280;52.152;21.052;2023-04-25T04:30:24;11.60;99.90
47540;DHT22;33280;52.152;21.052;2023-04-25T04:32:52;11.60;99.90
47540;DHT22;33280;52.152;21.052;2023-04-25T04:35:19;11.70;99.90
47540;DHT22;33280;52.152;21.052;2023-04-25T04:37:46;11.80;99.90
47540;DHT22;33280;52.152;21.052;2023-04-25T04:40:13;11.80;99.90
47540;DHT22;33280;52.152;21.052;2023-04-25T04:42:42;11.90;99.90
47540;DHT22;33280;52.152;21.052;2023-04-25T04:45:10;11.70;99.90
47540;DHT22;33280;52.152;21.052;2023-04-25T04:47:37;11.60;99.90
47540;DHT22;33280;52.152;21.052;2023-04-25T04:50:07;11.60;99.90
47540;DHT22;33280;52.152;21.052;2023-04-25T04:52:36;11.60;99.90
47540;DHT22;33280;52.152;21.052;2023-04-25T04:55:07;11.70;99.90
47540;DHT22;33280;52.152;21.052;2023-04-25T04:57:35;11.60;99.90
47540;DHT22;33280;52.152;21.052;2023-04-25T05:00:02;11.70;99.90
47540;DHT22;33280;52.152;21.052;2023-04-25T05:02:31;11.70;99.90
47540;DHT22;33280;52.152;21.052;2023-04-25T05:04:58;11.70;99.90
47540;DHT22;33280;52.152;21.052;2023-04-25T05:07:25;11.60;99.90
47540;DHT22;33280;52.152;21.052;2023-04-25T05:09:52;11.50;99.90
47540;DHT22;33280;52.152;21.052;2023-04-25T05:12:19;11.60;99.90
47540;DHT22;33280;52.152;21.052;2023-04-25T05:14:46;11.60;99.90
47540;DHT22;33280;52.152;21.052;2023-04-25T05:17:13;11.60;99.90
47540;DHT22;33280;52.152;21.052;2023-04-25T05:19:39;11.60;99.90
47540;DHT22;33280;52.152;21.052;2023-04-25T05:22:06;11.50;99.90
47540;DHT22;33280;52.152;21.052;2023-04-25T05:24:33;11.40;99.90
47540;DHT22;33280;52.152;21.052;2023-04-25T05:27:00;11.40;99.90
47540;DHT22;33280;52.152;21.052;2023-04-25T05:29:27;11.20;99.90
47540;DHT22;33280;52.152;21.052;2023-04-25T05:31:54;11.00;99.90
47540;DHT22;33280;52.152;21.052;2023-04-25T05:34:21;10.90;99.90
47540;DHT22;33280;52.152;21.052;2023-04-25T05:36:48;10.90;99.90
47540;DHT22;33280;52.152;21.052;2023-04-25T05:39:16;10.90;99.90
47540;DHT22;33280;52.152;21.052;2023-04-25T05:41:44;11.00;99.90
47540;DHT22;33280;52.152;21.052;2023-04-25T05:44:11;10.90;99.90
47540;DHT22;33280;52.152;21.052;2023-04-25T05:46:37;10.80;99.90
47540;DHT22;33280;52.152;21.052;2023-04-25T05:49:05;10.80;99.90
47540;DHT22;33280;52.152;21.052;2023-04-25T05:51:32;10.80;99.90
47540;DHT22;33280;52.152;21.052;2023-04-25T05:53:59;10.70;99.90
47540;DHT22;33280;52.152;21.052;2023-04-25T05:56:26;10.80;99.90
47540;DHT22;33280;52.152;21.052;2023-04-25T05:58:53;10.90;99.90
47540;DHT22;33280;52.152;21.052;2023-04-25T06:01:21;10.90;99.90
47540;DHT22;33280;52.152;21.052;2023-04-25T06:03:48;11.00;99.90
47540;DHT22;33280;52.152;21.052;2023-04-25T06:06:15;11.10;99.90
47540;DHT22;33280;52.152;21.052;2023-04-25T06:08:42;11.00;99.90
47540;DHT22;33280;52.152;21.052;2023-04-25T06:11:09;10.90;99.90
47540;DHT22;33280;52.152;21.052;2023-04-25T06:13:36;10.90;99.90
47540;DHT22;33280;52.152;21.052;2023-04-25T06:16:03;10.90;99.90
47540;DHT22;33280;52.152;21.052;2023-04-25T06:18:37;10.90;99.90
47540;DHT22;33280;52.152;21.052;2023-04-25T06:21:04;11.00;99.90
47540;DHT22;33280;52.152;21.052;2023-04-25T06:23:31;11.00;99.90
47540;DHT22;33280;52.152;21.052;2023-04-25T06:25:59;10.90;99.90
47540;DHT22;33280;52.152;21.052;2023-04-25T06:28:26;10.90;99.90
47540;DHT22;33280;52.152;21.052;2023-04-25T06:30:53;10.80;99.90
47540;DHT22;33280;52.152;21.052;2023-04-25T06:33:23;10.70;99.90
47540;DHT22;33280;52.152;21.052;2023-04-25T06:35:54;10.70;99.90
47540;DHT22;33280;52.152;21.052;2023-04-25T06:38:20;10.60;99.90
47540;DHT22;33280;52.152;21.052;2023-04-25T06:40:48;10.80;99.90
47540;DHT22;33280;52.152;21.052;2023-04-25T06:43:15;10.60;99.90
47540;DHT22;33280;52.152;21.052;2023-04-25T06:45:42;10.70;99.90
47540;DHT22;33280;52.152;21.052;2023-04-25T06:48:10;10.50;99.90
47540;DHT22;33280;52.152;21.052;2023-04-25T06:50:37;10.50;99.90
47540;DHT22;33280;52.152;21.052;2023-04-25T06:53:05;10.50;99.90
47540;DHT22;33280;52.152;21.052;2023-04-25T06:55:32;10.50;99.90
47540;DHT22;33280;52.152;21.052;2023-04-25T06:57:58;10.50;99.90
47540;DHT22;33280;52.152;21.052;2023-04-25T07:00:25;10.60;99.90
47540;DHT22;33280;52.152;21.052;2023-04-25T07:02:52;10.60;99.90
47540;DHT22;33280;52.152;21.052;2023-04-25T07:05:19;10.50;99.90
47540;DHT22;33280;52.152;21.052;2023-04-25T07:07:46;10.50;99.90
47540;DHT22;33280;52.152;21.052;2023-04-25T07:10:13;10.50;99.90
47540;DHT22;33280;52.152;21.052;2023-04-25T07:12:40;10.60;99.90
47540;DHT22;33280;52.152;21.052;2023-04-25T07:15:07;10.50;99.90
47540;DHT22;33280;52.152;21.052;2023-04-25T07:17:36;10.50;99.90
47540;DHT22;33280;52.152;21.052;2023-04-25T07:20:04;10.40;99.90
47540;DHT22;33280;52.152;21.052;2023-04-25T07:22:37;10.40;99.90
47540;DHT22;33280;52.152;21.052;2023-04-25T07:25:04;10.60;99.90
47540;DHT22;33280;52.152;21.052;2023-04-25T07:27:31;10.80;99.90
47540;DHT22;33280;52.152;21.052;2023-04-25T07:29:58;10.70;99.90
47540;DHT22;33280;52.152;21.052;2023-04-25T07:32:25;10.80;99.90
47540;DHT22;33280;52.152;21.052;2023-04-25T07:34:54;10.70;99.90
47540;DHT22;33280;52.152;21.052;2023-04-25T07:37:20;10.60;99.90
47540;DHT22;33280;52.152;21.052;2023-04-25T07:39:47;10.50;99.90
47540;DHT22;33280;52.152;21.052;2023-04-25T07:42:15;10.60;99.90
47540;DHT22;33280;52.152;21.052;2023-04-25T07:44:41;10.80;99.90
47540;DHT22;33280;52.152;21.052;2023-04-25T07:47:09;10.80;99.90
47540;DHT22;33280;52.152;21.052;2023-04-25T07:49:37;10.70;99.90
47540;DHT22;33280;52.152;21.052;2023-04-25T07:52:04;10.60;99.90
47540;DHT22;33280;52.152;21.052;2023-04-25T07:54:32;10.60;99.90
47540;DHT22;33280;52.152;21.052;2023-04-25T07:56:59;10.60;99.90
47540;DHT22;33280;52.152;21.052;2023-04-25T07:59:27;10.60;99.90
47540;DHT22;33280;52.152;21.052;2023-04-25T08:01:57;10.80;99.90
47540;DHT22;33280;52.152;21.052;2023-04-25T08:04:24;11.00;99.90
47540;DHT22;33280;52.152;21.052;2023-04-25T08:06:53;11.10;99.90
47540;DHT22;33280;52.152;21.052;2023-04-25T08:09:23;11.10;99.90
47540;DHT22;33280;52.152;21.052;2023-04-25T08:11:50;10.90;99.90
47540;DHT22;33280;52.152;21.052;2023-04-25T08:14:17;11.00;99.90
47540;DHT22;33280;52.152;21.052;2023-04-25T08:16:44;11.00;99.90
47540;DHT22;33280;52.152;21.052;2023-04-25T08:19:11;10.80;99.90
47540;DHT22;33280;52.152;21.052;2023-04-25T08:21:38;10.90;99.90
47540;DHT22;33280;52.152;21.052;2023-04-25T08:24:05;10.80;99.90
47540;DHT22;33280;52.152;21.052;2023-04-25T08:26:32;10.80;99.90
47540;DHT22;33280;52.152;21.052;2023-04-25T08:29:00;10.70;99.90
47540;DHT22;33280;52.152;21.052;2023-04-25T08:31:27;10.50;99.90
47540;DHT22;33280;52.152;21.052;2023-04-25T08:33:54;10.50;99.90
47540;DHT22;33280;52.152;21.052;2023-04-25T08:36:21;10.50;99.90
47540;DHT22;33280;52.152;21.052;2023-04-25T08:39:04;10.50;99.90
47540;DHT22;33280;52.152;21.052;2023-04-25T08:41:31;10.50;99.90
47540;DHT22;33280;52.152;21.052;2023-04-25T08:43:59;10.50;99.90
47540;DHT22;33280;52.152;21.052;2023-04-25T08:46:28;10.50;99.90
47540;DHT22;33280;52.152;21.052;2023-04-25T08:49:01;10.50;99.90
47540;DHT22;33280;52.152;21.052;2023-04-25T08:51:31;10.50;99.90
47540;DHT22;33280;52.152;21.052;2023-04-25T08:54:12;10.50;99.90
47540;DHT22;33280;52.152;21.052;2023-04-25T08:56:47;10.30;99.90
47540;DHT22;33280;52.152;21.052;2023-04-25T08:59:14;10.20;99.90
47540;DHT22;33280;52.152;21.052;2023-04-25T09:01:41;10.20;99.90
47540;DHT22;33280;52.152;21.052;2023-04-25T09:04:08;10.20;99.90
47540;DHT22;33280;52.152;21.052;2023-04-25T09:06:36;10.30;99.90
47540;DHT22;33280;52.152;21.052;2023-04-25T09:09:08;10.20;99.90
47540;DHT22;33280;52.152;21.052;2023-04-25T09:11:36;10.30;99.90
47540;DHT22;33280;52.152;21.052;2023-04-25T09:14:17;10.10;99.90
47540;DHT22;33280;52.152;21.052;2023-04-25T09:19:34;10.10;99.90
47540;DHT22;33280;52.152;21.052;2023-04-25T09:22:08;10.10;99.90
47540;DHT22;33280;52.152;21.052;2023-04-25T09:24:43;10.10;99.90
47540;DHT22;33280;52.152;21.052;2023-04-25T09:27:17;10.20;99.90
47540;DHT22;33280;52.152;21.052;2023-04-25T09:29:44;10.30;99.90
47540;DHT22;33280;52.152;21.052;2023-04-25T09:32:21;10.30;99.90
47540;DHT22;33280;52.152;21.052;2023-04-25T09:34:50;10.20;99.90
47540;DHT22;33280;52.152;21.052;2023-04-25T09:37:27;10.10;99.90
47540;DHT22;33280;52.152;21.052;2023-04-25T09:39:57;10.20;99.90
47540;DHT22;33280;52.152;21.052;2023-04-25T09:45:42;10.20;99.90
47540;DHT22;33280;52.152;21.052;2023-04-25T09:48:18;10.10;99.90
47540;DHT22;33280;52.152;21.052;2023-04-25T09:53:30;10.10;99.90
47540;DHT22;33280;52.152;21.052;2023-04-25T09:56:00;10.20;99.90
47540;DHT22;33280;52.152;21.052;2023-04-25T09:58:29;10.20;99.90
47540;DHT22;33280;52.152;21.052;2023-04-25T10:01:04;10.10;99.90
47540;DHT22;33280;52.152;21.052;2023-04-25T10:03:33;9.90;99.90
47540;DHT22;33280;52.152;21.052;2023-04-25T10:06:07;10.00;99.90
47540;DHT22;33280;52.152;21.052;2023-04-25T10:08:36;9.90;99.90
47540;DHT22;33280;52.152;21.052;2023-04-25T10:11:05;9.90;99.90
47540;DHT22;33280;52.152;21.052;2023-04-25T10:13:35;9.90;99.90
47540;DHT22;33280;52.152;21.052;2023-04-25T10:19:47;10.30;99.90
47540;DHT22;33280;52.152;21.052;2023-04-25T10:22:23;10.20;99.90
47540;DHT22;33280;52.152;21.052;2023-04-25T10:24:53;10.10;99.90
47540;DHT22;33280;52.152;21.052;2023-04-25T10:27:20;10.10;99.90
47540;DHT22;33280;52.152;21.052;2023-04-25T10:30:03;10.10;99.90
47540;DHT22;33280;52.152;21.052;2023-04-25T10:32:32;10.00;99.90
47540;DHT22;33280;52.152;21.052;2023-04-25T10:35:18;10.10;99.90
47540;DHT22;33280;52.152;21.052;2023-04-25T10:38:08;10.20;99.90
47540;DHT22;33280;52.152;21.052;2023-04-25T10:40:36;10.30;99.90
47540;DHT22;33280;52.152;21.052;2023-04-25T10:46:01;10.40;99.90
47540;DHT22;33280;52.152;21.052;2023-04-25T10:48:31;10.30;99.90
47540;DHT22;33280;52.152;21.052;2023-04-25T10:51:12;10.40;99.90
47540;DHT22;33280;52.152;21.052;2023-04-25T10:53:48;10.50;99.90
47540;DHT22;33280;52.152;21.052;2023-04-25T10:56:26;10.60;99.90
47540;DHT22;33280;52.152;21.052;2023-04-25T10:59:10;10.60;99.90
47540;DHT22;33280;52.152;21.052;2023-04-25T11:01:42;10.70;99.90
47540;DHT22;33280;52.152;21.052;2023-04-25T11:09:39;10.60;99.90
47540;DHT22;33280;52.152;21.052;2023-04-25T11:12:10;10.70;99.90
47540;DHT22;33280;52.152;21.052;2023-04-25T11:14:40;10.70;99.90
47540;DHT22;33280;52.152;21.052;2023-04-25T11:17:08;10.70;99.90
47540;DHT22;33280;52.152;21.052;2023-04-25T11:19:35;10.50;99.90
47540;DHT22;33280;52.152;21.052;2023-04-25T11:22:10;10.70;99.90
47540;DHT22;33280;52.152;21.052;2023-04-25T11:27:26;10.50;99.90
47540;DHT22;33280;52.152;21.052;2023-04-25T11:29:53;10.60;99.90
47540;DHT22;33280;52.152;21.052;2023-04-25T11:32:20;10.70;99.90
47540;DHT22;33280;52.152;21.052;2023-04-25T11:34:48;10.70;99.90
47540;DHT22;33280;52.152;21.052;2023-04-25T11:37:15;10.70;99.90
47540;DHT22;33280;52.152;21.052;2023-04-25T11:39:43;10.60;99.90
47540;DHT22;33280;52.152;21.052;2023-04-25T11:42:15;10.60;99.90
47540;DHT22;33280;52.152;21.052;2023-04-25T11:44:42;10.60;99.90
47540;DHT22;33280;52.152;21.052;2023-04-25T11:47:09;10.80;99.90
47540;DHT22;33280;52.152;21.052;2023-04-25T11:49:36;10.80;99.90
47540;DHT22;33280;52.152;21.052;2023-04-25T11:52:06;10.90;99.90
47540;DHT22;33280;52.152;21.052;2023-04-25T11:54:37;11.10;99.90
47540;DHT22;33280;52.152;21.052;2023-04-25T11:57:04;11.10;99.90
47540;DHT22;33280;52.152;21.052;2023-04-25T11:59:31;11.10;99.90
47540;DHT22;33280;52.152;21.052;2023-04-25T12:01:59;11.20;99.90
47540;DHT22;33280;52.152;21.052;2023-04-25T12:04:33;11.20;99.90
47540;DHT22;33280;52.152;21.052;2023-04-25T12:07:00;11.00;99.90
47540;DHT22;33280;52.152;21.052;2023-04-25T12:09:32;10.90;99.90
47540;DHT22;33280;52.152;21.052;2023-04-25T12:12:00;10.90;99.90
47540;DHT22;33280;52.152;21.052;2023-04-25T12:14:34;10.90;99.90
47540;DHT22;33280;52.152;21.052;2023-04-25T12:17:03;10.80;99.90
47540;DHT22;33280;52.152;21.052;2023-04-25T12:19:38;11.00;99.90
47540;DHT22;33280;52.152;21.052;2023-04-25T12:22:20;11.20;99.90
47540;DHT22;33280;52.152;21.052;2023-04-25T12:24:48;11.20;99.90
47540;DHT22;33280;52.152;21.052;2023-04-25T12:27:16;11.30;99.90
47540;DHT22;33280;52.152;21.052;2023-04-25T12:29:54;11.40;99.90
47540;DHT22;33280;52.152;21.052;2023-04-25T12:32:22;11.10;99.90
47540;DHT22;33280;52.152;21.052;2023-04-25T12:34:49;11.00;99.90
47540;DHT22;33280;52.152;21.052;2023-04-25T12:37:16;11.00;99.90
47540;DHT22;33280;52.152;21.052;2023-04-25T12:39:43;10.90;99.90
47540;DHT22;33280;52.152;21.052;2023-04-25T12:42:10;10.90;99.90
47540;DHT22;33280;52.152;21.052;2023-04-25T12:44:40;11.00;99.90
47540;DHT22;33280;52.152;21.052;2023-04-25T12:47:08;11.00;99.90
47540;DHT22;33280;52.152;21.052;2023-04-25T12:49:35;10.90;99.90
47540;DHT22;33280;52.152;21.052;2023-04-25T12:52:02;10.90;99.90
47540;DHT22;33280;52.152;21.052;2023-04-25T12:54:29;11.00;99.90
47540;DHT22;33280;52.152;21.052;2023-04-25T12:56:56;11.10;99.90
47540;DHT22;33280;52.152;21.052;2023-04-25T12:59:23;11.30;99.90
47540;DHT22;33280;52.152;21.052;2023-04-25T13:01:50;11.20;99.90
47540;DHT22;33280;52.152;21.052;2023-04-25T13:04:17;11.20;99.90
47540;DHT22;33280;52.152;21.052;2023-04-25T13:06:47;11.10;99.90
47540;DHT22;33280;52.152;21.052;2023-04-25T13:09:14;11.30;99.90
47540;DHT22;33280;52.152;21.052;2023-04-25T13:11:42;11.40;99.90
47540;DHT22;33280;52.152;21.052;2023-04-25T13:14:09;11.30;99.90
47540;DHT22;33280;52.152;21.052;2023-04-25T13:16:36;11.10;99.90
47540;DHT22;33280;52.152;21.052;2023-04-25T13:19:03;11.00;99.90
47540;DHT22;33280;52.152;21.052;2023-04-25T13:21:30;11.10;99.90
47540;DHT22;33280;52.152;21.052;2023-04-25T13:24:17;11.00;99.90
47540;DHT22;33280;52.152;21.052;2023-04-25T13:26:44;11.10;99.90
47540;DHT22;33280;52.152;21.052;2023-04-25T13:29:11;11.00;99.90
47540;DHT22;33280;52.152;21.052;2023-04-25T13:31:38;10.80;99.90
47540;DHT22;33280;52.152;21.052;2023-04-25T13:34:05;10.80;99.90
47540;DHT22;33280;52.152;21.052;2023-04-25T13:36:32;10.80;99.90
47540;DHT22;33280;52.152;21.052;2023-04-25T13:38:59;10.80;99.90
47540;DHT22;33280;52.152;21.052;2023-04-25T13:41:26;11.00;99.90
47540;DHT22;33280;52.152;21.052;2023-04-25T13:43:53;10.90;99.90
47540;DHT22;33280;52.152;21.052;2023-04-25T13:46:21;11.00;99.90
47540;DHT22;33280;52.152;21.052;2023-04-25T13:49:14;11.00;99.90
47540;DHT22;33280;52.152;21.052;2023-04-25T13:51:42;11.10;99.90
47540;DHT22;33280;52.152;21.052;2023-04-25T13:54:09;11.10;99.90
47540;DHT22;33280;52.152;21.052;2023-04-25T13:56:36;10.90;99.90
47540;DHT22;33280;52.152;21.052;2023-04-25T13:59:03;10.70;99.90
47540;DHT22;33280;52.152;21.052;2023-04-25T14:01:30;10.70;99.90
47540;DHT22;33280;52.152;21.052;2023-04-25T14:04:01;10.80;99.90
47540;DHT22;33280;52.152;21.052;2023-04-25T14:06:31;10.70;99.90
47540;DHT22;33280;52.152;21.052;2023-04-25T14:08:58;10.80;99.90
47540;DHT22;33280;52.152;21.052;2023-04-25T14:11:27;10.90;99.90
47540;DHT22;33280;52.152;21.052;2023-04-25T14:13:54;11.10;99.90
47540;DHT22;33280;52.152;21.052;2023-04-25T14:16:21;11.10;99.90
47540;DHT22;33280;52.152;21.052;2023-04-25T14:18:50;11.10;99.90
47540;DHT22;33280;52.152;21.052;2023-04-25T14:21:17;11.00;99.90
47540;DHT22;33280;52.152;21.052;2023-04-25T14:23:44;11.00;99.90
47540;DHT22;33280;52.152;21.052;2023-04-25T14:26:11;10.80;99.90
47540;DHT22;33280;52.152;21.052;2023-04-25T14:28:39;10.80;99.90
47540;DHT22;33280;52.152;21.052;2023-04-25T14:31:12;10.70;99.90
47540;DHT22;33280;52.152;21.052;2023-04-25T14:33:42;10.70;99.90
47540;DHT22;33280;52.152;21.052;2023-04-25T14:36:34;10.70;99.90
47540;DHT22;33280;52.152;21.052;2023-04-25T14:39:04;10.80;99.90
47540;DHT22;33280;52.152;21.052;2023-04-25T14:45:01;10.80;99.90
47540;DHT22;33280;52.152;21.052;2023-04-25T14:47:31;10.90;99.90
47540;DHT22;33280;52.152;21.052;2023-04-25T14:50:23;10.80;99.90
47540;DHT22;33280;52.152;21.052;2023-04-25T14:58:17;10.50;99.90
47540;DHT22;33280;52.152;21.052;2023-04-25T15:00:46;10.50;99.90
47540;DHT22;33280;52.152;21.052;2023-04-25T15:03:16;10.50;99.90
47540;DHT22;33280;52.152;21.052;2023-04-25T15:09:22;10.60;99.90
47540;DHT22;33280;52.152;21.052;2023-04-25T15:12:05;10.80;99.90
47540;DHT22;33280;52.152;21.052;2023-04-25T15:14:38;10.60;99.90
47540;DHT22;33280;52.152;21.052;2023-04-25T15:17:05;10.50;99.90
47540;DHT22;33280;52.152;21.052;2023-04-25T15:19:32;10.50;99.90
47540;DHT22;33280;52.152;21.052;2023-04-25T15:21:59;10.40;99.90
47540;DHT22;33280;52.152;21.052;2023-04-25T15:24:33;10.40;99.90
47540;DHT22;33280;52.152;21.052;2023-04-25T15:27:00;10.20;99.90
47540;DHT22;33280;52.152;21.052;2023-04-25T15:29:27;10.20;99.90
47540;DHT22;33280;52.152;21.052;2023-04-25T15:31:56;10.20;99.90
47540;DHT22;33280;52.152;21.052;2023-04-25T15:34:24;10.30;99.90
47540;DHT22;33280;52.152;21.052;2023-04-25T15:36:51;10.50;99.90
47540;DHT22;33280;52.152;21.052;2023-04-25T15:39:17;10.40;99.90
47540;DHT22;33280;52.152;21.052;2023-04-25T15:41:44;10.40;99.90
47540;DHT22;33280;52.152;21.052;2023-04-25T15:44:11;10.30;99.90
47540;DHT22;33280;52.152;21.052;2023-04-25T15:46:38;10.30;99.90
47540;DHT22;33280;52.152;21.052;2023-04-25T15:49:05;10.30;99.90
47540;DHT22;33280;52.152;21.052;2023-04-25T15:51:34;10.40;99.90
47540;DHT22;33280;52.152;21.052;2023-04-25T15:54:01;10.30;99.90
47540;DHT22;33280;52.152;21.052;2023-04-25T15:56:29;10.30;99.90
47540;DHT22;33280;52.152;21.052;2023-04-25T15:58:57;10.20;99.90